createdAt,value
2019-06-27T00:00:29.112Z,21.08
2019-06-27T00:01:29.031Z,21.03
2019-06-27T00:02:29.091Z,21.00
2019-06-27T00:03:29.107Z,20.86
2019-06-27T00:04:29.095Z,20.92
2019-06-27T00:05:29.157Z,20.80
2019-06-27T00:06:29.164Z,20.82
2019-06-27T00:07:29.152Z,20.74
2019-06-27T00:08:29.166Z,20.67
2019-06-27T00:09:29.181Z,20.68
2019-06-27T00:10:29.205Z,20.63
2019-06-27T00:11:29.227Z,20.58
2019-06-27T00:12:29.251Z,20.58
2019-06-27T00:13:29.276Z,20.48
2019-06-27T00:14:29.298Z,20.48
2019-06-27T00:15:29.322Z,20.42
2019-06-27T00:16:29.352Z,20.37
2019-06-27T00:17:29.368Z,20.36
2019-06-27T00:18:29.394Z,20.36
2019-06-27T00:19:29.417Z,20.37
2019-06-27T00:20:29.437Z,20.19
2019-06-27T00:21:29.464Z,20.17
2019-06-27T00:22:29.487Z,20.21
2019-06-27T00:23:29.511Z,20.15
2019-06-27T00:24:29.537Z,20.15
2019-06-27T00:25:29.563Z,20.11
2019-06-27T00:26:29.581Z,20.02
2019-06-27T00:27:29.605Z,20.07
2019-06-27T00:28:29.631Z,20.03
2019-06-27T00:29:29.652Z,20.04
2019-06-27T00:30:29.672Z,19.97
2019-06-27T00:31:29.699Z,19.92
2019-06-27T00:32:29.722Z,19.90
2019-06-27T00:33:29.745Z,19.87
2019-06-27T00:34:29.768Z,19.79
2019-06-27T00:35:29.792Z,19.74
2019-06-27T00:36:29.815Z,19.70
2019-06-27T00:37:29.837Z,19.64
2019-06-27T00:38:29.863Z,19.67
2019-06-27T00:39:29.886Z,19.67
2019-06-27T00:40:29.908Z,19.71
2019-06-27T00:41:29.929Z,19.62
2019-06-27T00:42:29.955Z,19.63
2019-06-27T00:43:29.976Z,19.55
2019-06-27T00:44:30.001Z,19.56
2019-06-27T00:45:30.021Z,19.48
2019-06-27T00:46:30.053Z,19.45
2019-06-27T00:47:30.070Z,19.38
2019-06-27T00:48:30.092Z,19.41
2019-06-27T00:49:30.118Z,19.39
2019-06-27T00:50:30.139Z,19.30
2019-06-27T00:51:30.164Z,19.26
2019-06-27T00:52:30.202Z,19.39
2019-06-27T00:53:30.209Z,19.27
2019-06-27T00:54:30.231Z,19.20
2019-06-27T00:55:30.255Z,19.20
2019-06-27T00:56:30.277Z,19.26
2019-06-27T00:57:30.302Z,19.20
2019-06-27T00:58:30.326Z,19.22
2019-06-27T00:59:30.346Z,19.22
2019-06-27T01:00:30.369Z,19.12
2019-06-27T01:01:30.392Z,19.07
2019-06-27T01:02:30.415Z,19.09
2019-06-27T01:03:30.438Z,19.00
2019-06-27T01:04:30.461Z,18.98
2019-06-27T01:05:30.484Z,19.00
2019-06-27T01:06:30.509Z,18.89
2019-06-27T01:07:30.531Z,18.94
2019-06-27T01:08:30.553Z,18.78
2019-06-27T01:09:30.575Z,18.82
2019-06-27T01:10:30.598Z,18.81
2019-06-27T01:11:30.621Z,18.79
2019-06-27T01:12:30.645Z,18.81
2019-06-27T01:13:30.667Z,18.74
2019-06-27T01:14:30.690Z,18.79
2019-06-27T01:15:30.713Z,18.66
2019-06-27T01:16:30.763Z,18.66
2019-06-27T01:17:30.759Z,18.71
2019-06-27T01:18:30.782Z,18.68
2019-06-27T01:19:30.802Z,18.61
2019-06-27T01:20:30.826Z,18.74
2019-06-27T01:21:30.850Z,18.67
2019-06-27T01:22:30.876Z,18.68
2019-06-27T01:23:30.894Z,18.64
2019-06-27T01:24:30.945Z,18.67
2019-06-27T01:25:30.985Z,18.64
2019-06-27T01:26:31.003Z,18.63
2019-06-27T01:27:31.056Z,18.66
2019-06-27T01:28:31.055Z,18.68
2019-06-27T01:29:31.049Z,18.64
2019-06-27T01:30:31.053Z,18.68
2019-06-27T01:31:31.078Z,18.67
2019-06-27T01:32:31.100Z,18.67
2019-06-27T01:33:31.121Z,18.70
2019-06-27T01:34:31.146Z,18.67
2019-06-27T01:35:31.167Z,18.64
2019-06-27T01:36:31.189Z,18.60
2019-06-27T01:37:31.216Z,18.51
2019-06-27T01:38:31.236Z,18.53
2019-06-27T01:39:31.259Z,18.53
2019-06-27T01:40:31.284Z,18.51
2019-06-27T01:41:31.303Z,18.36
2019-06-27T01:42:31.326Z,18.33
2019-06-27T01:43:31.347Z,18.24
2019-06-27T01:44:31.374Z,18.30
2019-06-27T01:45:31.395Z,18.21
2019-06-27T01:46:31.416Z,18.27
2019-06-27T01:47:31.442Z,18.12
2019-06-27T01:48:31.486Z,18.12
2019-06-27T01:49:31.484Z,18.02
2019-06-27T01:50:31.510Z,18.06
2019-06-27T01:51:31.528Z,17.93
2019-06-27T01:52:31.552Z,17.87
2019-06-27T01:53:31.575Z,17.94
2019-06-27T01:54:31.599Z,17.84
2019-06-27T01:55:31.626Z,17.88
2019-06-27T01:56:31.642Z,17.79
2019-06-27T01:57:45.475Z,17.78
2019-06-27T01:58:31.685Z,17.68
2019-06-27T01:59:31.708Z,17.60
2019-06-27T02:00:31.730Z,17.60
2019-06-27T02:01:31.751Z,17.66
2019-06-27T02:02:31.778Z,17.57
2019-06-27T02:03:31.797Z,17.59
2019-06-27T02:04:31.821Z,17.54
2019-06-27T02:05:31.842Z,17.56
2019-06-27T02:06:31.861Z,17.54
2019-06-27T02:07:31.887Z,17.59
2019-06-27T02:08:31.906Z,17.54
2019-06-27T02:09:33.528Z,17.54
2019-06-27T02:10:31.957Z,17.60
2019-06-27T02:11:31.976Z,17.57
2019-06-27T02:12:31.997Z,17.56
2019-06-27T02:13:32.021Z,17.53
2019-06-27T02:14:32.040Z,17.52
2019-06-27T02:15:32.064Z,17.54
2019-06-27T02:16:32.085Z,17.56
2019-06-27T02:17:32.105Z,17.53
2019-06-27T02:18:32.128Z,17.52
2019-06-27T02:19:32.151Z,17.56
2019-06-27T02:20:32.173Z,17.50
2019-06-27T02:21:32.194Z,17.46
2019-06-27T02:22:32.221Z,17.53
2019-06-27T02:23:32.242Z,17.38
2019-06-27T02:24:32.262Z,17.49
2019-06-27T02:25:32.284Z,17.41
2019-06-27T02:26:32.304Z,17.42
2019-06-27T02:27:32.327Z,17.42
2019-06-27T02:28:32.351Z,17.41
2019-06-27T02:29:32.374Z,17.39
2019-06-27T02:30:32.410Z,17.34
2019-06-27T02:31:32.418Z,17.38
2019-06-27T02:32:32.438Z,17.37
2019-06-27T02:33:32.457Z,17.38
2019-06-27T02:34:32.483Z,17.38
2019-06-27T02:35:32.507Z,17.32
2019-06-27T02:36:32.527Z,17.30
2019-06-27T02:37:32.548Z,17.22
2019-06-27T02:38:32.571Z,17.28
2019-06-27T02:39:32.592Z,17.27
2019-06-27T02:40:32.614Z,17.30
2019-06-27T02:41:32.638Z,17.27
2019-06-27T02:42:32.657Z,17.19
2019-06-27T02:43:32.680Z,17.16
2019-06-27T02:44:32.702Z,17.16
2019-06-27T02:45:32.725Z,17.17
2019-06-27T02:46:32.750Z,17.10
2019-06-27T02:47:32.767Z,17.10
2019-06-27T02:48:32.795Z,17.12
2019-06-27T02:49:32.833Z,17.07
2019-06-27T02:50:32.897Z,16.98
2019-06-27T02:51:32.890Z,16.99
2019-06-27T02:52:32.955Z,16.98
2019-06-27T02:53:32.953Z,16.98
2019-06-27T02:54:32.951Z,17.04
2019-06-27T02:55:32.955Z,17.01
2019-06-27T02:56:32.966Z,17.02
2019-06-27T02:57:32.989Z,17.05
2019-06-27T02:58:33.058Z,17.05
2019-06-27T02:59:33.030Z,16.91
2019-06-27T03:00:33.052Z,16.98
2019-06-27T03:01:33.075Z,16.95
2019-06-27T03:02:33.096Z,16.98
2019-06-27T03:03:33.124Z,17.01
2019-06-27T03:04:33.144Z,16.95
2019-06-27T03:05:33.170Z,16.97
2019-06-27T03:06:33.183Z,16.99
2019-06-27T03:07:33.214Z,16.95
2019-06-27T03:08:33.229Z,16.87
2019-06-27T03:09:33.249Z,16.91
2019-06-27T03:10:33.274Z,16.98
2019-06-27T03:11:33.294Z,16.95
2019-06-27T03:12:33.315Z,16.89
2019-06-27T03:13:33.347Z,16.89
2019-06-27T03:14:33.427Z,16.99
2019-06-27T03:15:33.382Z,16.89
2019-06-27T03:16:33.402Z,16.98
2019-06-27T03:17:33.427Z,16.95
2019-06-27T03:18:33.451Z,16.97
2019-06-27T03:19:33.468Z,16.98
2019-06-27T03:20:33.495Z,16.89
2019-06-27T03:21:33.511Z,16.94
2019-06-27T03:22:33.534Z,17.01
2019-06-27T03:23:33.557Z,17.02
2019-06-27T03:24:33.579Z,17.01
2019-06-27T03:25:33.602Z,17.01
2019-06-27T03:26:33.620Z,16.94
2019-06-27T03:27:33.649Z,16.94
2019-06-27T03:28:50.828Z,17.02
2019-06-27T03:29:33.687Z,16.97
2019-06-27T03:30:33.709Z,16.95
2019-06-27T03:31:33.735Z,16.97
2019-06-27T03:32:33.759Z,17.01
2019-06-27T03:33:33.775Z,17.01
2019-06-27T03:34:33.798Z,17.02
2019-06-27T03:35:33.829Z,16.99
2019-06-27T03:36:33.841Z,16.94
2019-06-27T03:37:33.873Z,16.91
2019-06-27T03:38:33.882Z,16.92
2019-06-27T03:39:33.913Z,16.91
2019-06-27T03:40:33.930Z,16.92
2019-06-27T03:41:33.950Z,16.83
2019-06-27T03:42:33.970Z,16.94
2019-06-27T03:43:33.993Z,16.91
2019-06-27T03:44:34.022Z,16.77
2019-06-27T03:45:34.057Z,16.76
2019-06-27T03:46:34.059Z,16.77
2019-06-27T03:47:34.085Z,16.77
2019-06-27T03:48:34.101Z,16.73
2019-06-27T03:49:34.132Z,16.73
2019-06-27T03:50:34.145Z,16.72
2019-06-27T03:51:34.168Z,16.73
2019-06-27T03:52:34.190Z,16.74
2019-06-27T03:53:34.212Z,16.72
2019-06-27T03:54:34.240Z,16.68
2019-06-27T03:55:34.255Z,16.68
2019-06-27T03:56:34.284Z,16.68
2019-06-27T03:57:34.304Z,16.68
2019-06-27T03:58:34.324Z,16.68
2019-06-27T03:59:34.347Z,16.62
2019-06-27T04:00:34.371Z,16.68
2019-06-27T04:01:34.387Z,16.62
2019-06-27T04:02:34.408Z,16.64
2019-06-27T04:03:34.431Z,16.61
2019-06-27T04:04:34.451Z,16.58
2019-06-27T04:05:34.475Z,16.61
2019-06-27T04:06:34.546Z,16.51
2019-06-27T04:07:34.517Z,16.50
2019-06-27T04:08:34.537Z,16.44
2019-06-27T04:09:34.558Z,16.47
2019-06-27T04:10:34.593Z,16.43
2019-06-27T04:11:34.696Z,16.34
2019-06-27T04:12:34.631Z,16.34
2019-06-27T04:13:34.657Z,16.39
2019-06-27T04:14:34.669Z,16.32
2019-06-27T04:15:34.693Z,16.37
2019-06-27T04:16:34.783Z,16.39
2019-06-27T04:17:34.792Z,16.37
2019-06-27T04:18:34.787Z,16.39
2019-06-27T04:19:34.878Z,16.37
2019-06-27T04:20:34.859Z,16.31
2019-06-27T04:21:34.870Z,16.31
2019-06-27T04:22:34.857Z,16.41
2019-06-27T04:23:34.864Z,16.39
2019-06-27T04:24:34.887Z,16.34
2019-06-27T04:25:34.918Z,16.41
2019-06-27T04:26:34.930Z,16.40
2019-06-27T04:27:34.951Z,16.41
2019-06-27T04:28:34.976Z,16.40
2019-06-27T04:29:35.112Z,16.39
2019-06-27T04:30:35.016Z,16.41
2019-06-27T04:31:35.039Z,16.49
2019-06-27T04:32:35.060Z,16.44
2019-06-27T04:33:35.083Z,16.41
2019-06-27T04:34:35.106Z,16.39
2019-06-27T04:35:35.129Z,16.40
2019-06-27T04:36:35.146Z,16.46
2019-06-27T04:37:35.174Z,16.51
2019-06-27T04:38:35.191Z,16.46
2019-06-27T04:39:35.213Z,16.51
2019-06-27T04:40:35.286Z,16.57
2019-06-27T04:41:35.258Z,16.57
2019-06-27T04:42:35.278Z,16.62
2019-06-27T04:43:35.298Z,16.68
2019-06-27T04:44:35.324Z,16.74
2019-06-27T04:45:35.416Z,16.76
2019-06-27T04:46:35.369Z,16.72
2019-06-27T04:47:35.392Z,16.87
2019-06-27T04:48:35.411Z,16.91
2019-06-27T04:49:35.431Z,16.97
2019-06-27T04:50:35.451Z,16.99
2019-06-27T04:51:35.475Z,17.07
2019-06-27T04:52:35.508Z,16.95
2019-06-27T04:53:35.520Z,16.99
2019-06-27T04:54:35.541Z,17.04
2019-06-27T04:55:35.564Z,17.09
2019-06-27T04:56:35.587Z,17.07
2019-06-27T04:57:35.608Z,17.02
2019-06-27T04:58:35.633Z,17.04
2019-06-27T04:59:51.902Z,17.04
2019-06-27T05:00:35.676Z,17.02
2019-06-27T05:01:35.701Z,16.92
2019-06-27T05:02:35.719Z,16.97
2019-06-27T05:03:35.746Z,17.02
2019-06-27T05:04:35.763Z,16.98
2019-06-27T05:05:35.782Z,17.04
2019-06-27T05:06:35.808Z,17.01
2019-06-27T05:07:35.828Z,17.01
2019-06-27T05:08:35.850Z,17.01
2019-06-27T05:09:35.872Z,17.01
2019-06-27T05:10:35.899Z,17.10
2019-06-27T05:11:35.926Z,17.09
2019-06-27T05:12:35.938Z,17.20
2019-06-27T05:13:35.961Z,17.10
2019-06-27T05:14:35.984Z,17.17
2019-06-27T05:15:36.011Z,17.22
2019-06-27T05:16:36.029Z,17.20
2019-06-27T05:17:36.050Z,17.22
2019-06-27T05:18:36.114Z,17.23
2019-06-27T05:19:36.097Z,17.28
2019-06-27T05:20:36.118Z,17.24
2019-06-27T05:21:36.140Z,17.24
2019-06-27T05:22:36.162Z,17.23
2019-06-27T05:23:36.187Z,17.31
2019-06-27T05:24:36.206Z,17.28
2019-06-27T05:25:36.228Z,17.39
2019-06-27T05:26:36.253Z,17.41
2019-06-27T05:27:36.276Z,17.42
2019-06-27T05:28:36.296Z,17.42
2019-06-27T05:29:36.317Z,17.63
2019-06-27T05:30:36.361Z,17.54
2019-06-27T05:31:36.363Z,17.72
2019-06-27T05:32:36.387Z,17.80
2019-06-27T05:33:36.414Z,17.90
2019-06-27T05:34:36.432Z,17.98
2019-06-27T05:35:36.457Z,18.03
2019-06-27T05:36:36.476Z,18.06
2019-06-27T05:37:36.500Z,18.09
2019-06-27T05:38:36.522Z,18.05
2019-06-27T05:39:36.547Z,18.15
2019-06-27T05:40:36.570Z,18.02
2019-06-27T05:41:36.602Z,18.02
2019-06-27T05:42:36.682Z,18.06
2019-06-27T05:43:36.686Z,17.94
2019-06-27T05:44:36.748Z,17.88
2019-06-27T05:45:36.752Z,17.90
2019-06-27T05:46:36.743Z,17.86
2019-06-27T05:47:36.744Z,17.76
2019-06-27T05:48:39.615Z,17.78
2019-06-27T05:49:36.774Z,17.66
2019-06-27T05:50:36.798Z,17.72
2019-06-27T05:51:36.820Z,17.68
2019-06-27T05:52:36.847Z,17.54
2019-06-27T05:53:36.864Z,17.59
2019-06-27T05:54:36.888Z,17.63
2019-06-27T05:55:36.912Z,17.53
2019-06-27T05:56:36.931Z,17.49
2019-06-27T05:57:36.957Z,17.42
2019-06-27T05:58:36.977Z,17.39
2019-06-27T05:59:37.003Z,17.34
2019-06-27T06:00:37.035Z,17.30
2019-06-27T06:01:37.050Z,17.24
2019-06-27T06:02:37.066Z,17.27
2019-06-27T06:03:37.106Z,17.22
2019-06-27T06:04:37.120Z,17.20
2019-06-27T06:05:37.138Z,17.16
2019-06-27T06:06:37.155Z,17.12
2019-06-27T06:07:37.183Z,17.14
2019-06-27T06:08:37.200Z,17.16
2019-06-27T06:09:37.228Z,17.12
2019-06-27T06:10:37.246Z,17.14
2019-06-27T06:11:37.268Z,17.07
2019-06-27T06:12:37.293Z,17.16
2019-06-27T06:13:37.309Z,17.13
2019-06-27T06:14:37.334Z,17.12
2019-06-27T06:15:37.378Z,17.12
2019-06-27T06:16:37.377Z,17.20
2019-06-27T06:17:37.400Z,17.20
2019-06-27T06:18:37.421Z,17.17
2019-06-27T06:19:37.445Z,17.23
2019-06-27T06:20:37.466Z,17.34
2019-06-27T06:21:37.492Z,17.32
2019-06-27T06:22:37.510Z,17.44
2019-06-27T06:23:37.536Z,17.60
2019-06-27T06:24:37.559Z,17.68
2019-06-27T06:25:37.578Z,17.80
2019-06-27T06:26:37.621Z,17.86
2019-06-27T06:27:37.625Z,18.16
2019-06-27T06:28:37.649Z,18.27
2019-06-27T06:29:37.672Z,18.45
2019-06-27T06:30:44.191Z,18.61
2019-06-27T06:31:37.720Z,18.67
2019-06-27T06:32:37.746Z,18.83
2019-06-27T06:33:37.774Z,18.89
2019-06-27T06:34:37.790Z,18.94
2019-06-27T06:35:37.814Z,19.08
2019-06-27T06:36:37.842Z,19.12
2019-06-27T06:37:37.861Z,19.15
2019-06-27T06:38:37.888Z,19.27
2019-06-27T06:39:37.911Z,19.34
2019-06-27T06:40:37.936Z,19.34
2019-06-27T06:41:37.961Z,19.44
2019-06-27T06:42:37.984Z,19.39
2019-06-27T06:43:38.012Z,19.53
2019-06-27T06:44:38.035Z,19.63
2019-06-27T06:45:38.057Z,19.64
2019-06-27T06:46:38.093Z,19.72
2019-06-27T06:47:38.111Z,19.77
2019-06-27T06:48:38.134Z,19.96
2019-06-27T06:49:38.159Z,20.12
2019-06-27T06:50:38.183Z,20.27
2019-06-27T06:51:38.216Z,20.34
2019-06-27T06:52:38.235Z,20.52
2019-06-27T06:53:38.260Z,20.64
2019-06-27T06:54:38.286Z,20.70
2019-06-27T06:55:38.312Z,20.78
2019-06-27T06:56:38.339Z,20.88
2019-06-27T06:57:38.362Z,21.07
2019-06-27T06:58:38.393Z,21.22
2019-06-27T06:59:38.419Z,21.29
2019-06-27T07:00:38.450Z,21.32
2019-06-27T07:01:38.476Z,21.32
2019-06-27T07:02:38.514Z,21.45
2019-06-27T07:03:38.596Z,21.48
2019-06-27T07:04:38.582Z,21.70
2019-06-27T07:05:38.658Z,21.88
2019-06-27T07:06:38.650Z,21.94
2019-06-27T07:07:38.641Z,22.07
2019-06-27T07:08:38.663Z,22.12
2019-06-27T07:09:38.692Z,22.16
2019-06-27T07:10:38.720Z,22.23
2019-06-27T07:11:38.770Z,22.26
2019-06-27T07:12:38.784Z,22.47
2019-06-27T07:13:38.806Z,22.62
2019-06-27T07:14:38.831Z,22.78
2019-06-27T07:15:38.860Z,22.91
2019-06-27T07:16:38.890Z,22.88
2019-06-27T07:17:38.979Z,23.02
2019-06-27T07:18:38.946Z,23.16
2019-06-27T07:19:38.978Z,23.20
2019-06-27T07:20:39.008Z,23.23
2019-06-27T07:21:39.036Z,23.28
2019-06-27T07:22:39.065Z,23.39
2019-06-27T07:23:39.112Z,23.34
2019-06-27T07:24:39.124Z,23.33
2019-06-27T07:25:39.161Z,23.36
2019-06-27T07:26:39.184Z,23.37
2019-06-27T07:27:39.221Z,23.44
2019-06-27T07:28:39.241Z,23.51
2019-06-27T07:29:39.270Z,23.58
2019-06-27T07:30:39.300Z,23.54
2019-06-27T07:31:39.329Z,23.67
2019-06-27T07:32:39.362Z,23.84
2019-06-27T07:33:39.388Z,23.88
2019-06-27T07:34:39.424Z,23.91
2019-06-27T07:35:39.450Z,24.11
2019-06-27T07:36:39.486Z,24.07
2019-06-27T07:37:39.511Z,24.16
2019-06-27T07:38:39.541Z,24.25
2019-06-27T07:39:39.573Z,24.37
2019-06-27T07:40:39.668Z,24.40
2019-06-27T07:41:39.633Z,24.59
2019-06-27T07:42:39.667Z,24.50
2019-06-27T07:43:39.696Z,24.53
2019-06-27T07:44:39.740Z,24.61
2019-06-27T07:45:39.797Z,24.62
2019-06-27T07:46:39.786Z,24.71
2019-06-27T07:47:39.821Z,24.65
2019-06-27T07:48:39.850Z,24.77
2019-06-27T07:49:39.883Z,25.00
2019-06-27T07:50:39.913Z,25.00
2019-06-27T07:51:39.944Z,25.14
2019-06-27T07:52:39.991Z,25.22
2019-06-27T07:53:40.018Z,25.25
2019-06-27T07:54:40.054Z,25.37
2019-06-27T07:55:40.083Z,25.39
2019-06-27T07:56:40.105Z,25.40
2019-06-27T07:57:40.135Z,25.55
2019-06-27T07:58:40.170Z,25.62
2019-06-27T07:59:40.199Z,25.55
2019-06-27T08:00:40.239Z,25.62
2019-06-27T08:01:40.265Z,25.62
2019-06-27T08:02:40.298Z,25.70
2019-06-27T08:03:40.329Z,25.74
2019-06-27T08:04:40.366Z,25.70
2019-06-27T08:05:40.402Z,25.68
2019-06-27T08:06:40.456Z,25.73
2019-06-27T08:07:40.738Z,25.63
2019-06-27T08:08:40.530Z,25.52
2019-06-27T08:09:40.585Z,25.58
2019-06-27T08:10:40.573Z,25.55
2019-06-27T08:11:40.601Z,25.63
2019-06-27T08:12:42.467Z,25.73
2019-06-27T08:13:40.655Z,25.71
2019-06-27T08:14:40.689Z,25.74
2019-06-27T08:15:40.722Z,25.78
2019-06-27T08:16:40.757Z,25.85
2019-06-27T08:17:40.786Z,25.98
2019-06-27T08:18:40.820Z,25.93
2019-06-27T08:19:40.867Z,25.89
2019-06-27T08:20:40.886Z,25.77
2019-06-27T08:21:40.920Z,25.70
2019-06-27T08:22:40.957Z,25.29
2019-06-27T08:23:42.064Z,25.51
2019-06-27T08:24:41.019Z,25.61
2019-06-27T08:25:41.052Z,25.66
2019-06-27T08:26:41.087Z,25.54
2019-06-27T08:27:41.151Z,25.54
2019-06-27T08:28:41.153Z,25.76
2019-06-27T08:29:41.184Z,25.71
2019-06-27T08:30:41.219Z,25.86
2019-06-27T08:31:50.997Z,25.80
2019-06-27T08:32:41.290Z,25.88
2019-06-27T08:33:41.323Z,25.99
2019-06-27T08:34:41.357Z,25.98
2019-06-27T08:35:41.386Z,26.16
2019-06-27T08:36:41.420Z,26.18
2019-06-27T08:37:41.461Z,26.36
2019-06-27T08:38:41.489Z,26.51
2019-06-27T08:39:41.526Z,26.27
2019-06-27T08:40:41.559Z,26.51
2019-06-27T08:41:41.593Z,26.59
2019-06-27T08:42:41.630Z,26.68
2019-06-27T08:43:41.662Z,26.73
2019-06-27T08:44:41.696Z,26.68
2019-06-27T08:45:41.727Z,26.81
2019-06-27T08:46:41.762Z,26.81
2019-06-27T08:47:41.802Z,26.78
2019-06-27T08:48:41.832Z,27.03
2019-06-27T08:49:41.870Z,26.98
2019-06-27T08:50:41.902Z,26.98
2019-06-27T08:51:41.942Z,27.03
2019-06-27T08:52:41.981Z,27.03
2019-06-27T08:53:42.010Z,27.16
2019-06-27T08:54:42.040Z,27.20
2019-06-27T08:55:42.076Z,27.18
2019-06-27T08:56:42.111Z,27.25
2019-06-27T08:57:42.146Z,27.26
2019-06-27T08:58:42.182Z,27.20
2019-06-27T08:59:42.216Z,27.23
2019-06-27T09:00:45.624Z,27.41
2019-06-27T09:01:42.297Z,27.50
2019-06-27T09:02:42.322Z,27.55
2019-06-27T09:03:42.436Z,27.61
2019-06-27T09:04:42.444Z,27.61
2019-06-27T09:05:42.457Z,27.64
2019-06-27T09:06:42.509Z,27.63
2019-06-27T09:07:42.511Z,27.68
2019-06-27T09:08:42.539Z,27.64
2019-06-27T09:09:42.571Z,27.76
2019-06-27T09:10:42.607Z,27.88
2019-06-27T09:11:42.643Z,28.03
2019-06-27T09:12:42.679Z,27.94
2019-06-27T09:13:42.714Z,28.04
2019-06-27T09:14:42.750Z,28.06
2019-06-27T09:15:42.786Z,28.08
2019-06-27T09:16:46.399Z,28.13
2019-06-27T09:17:42.860Z,28.27
2019-06-27T09:18:42.900Z,28.33
2019-06-27T09:19:42.931Z,28.41
2019-06-27T09:20:42.966Z,28.59
2019-06-27T09:21:43.003Z,28.57
2019-06-27T09:22:43.038Z,28.67
2019-06-27T09:23:43.077Z,28.72
2019-06-27T09:24:43.115Z,28.84
2019-06-27T09:25:43.150Z,28.86
2019-06-27T09:26:43.187Z,28.89
2019-06-27T09:27:43.227Z,28.92
2019-06-27T09:28:43.261Z,28.97
2019-06-27T09:29:43.298Z,28.93
2019-06-27T09:30:43.338Z,29.00
2019-06-27T09:31:43.372Z,28.96
2019-06-27T09:32:43.410Z,28.97
2019-06-27T09:33:43.452Z,29.07
2019-06-27T09:34:43.503Z,29.12
2019-06-27T09:35:43.526Z,29.00
2019-06-27T09:36:43.574Z,29.18
2019-06-27T09:37:43.635Z,29.28
2019-06-27T09:38:43.632Z,29.28
2019-06-27T09:39:43.673Z,29.15
2019-06-27T09:40:43.708Z,29.24
2019-06-27T09:41:43.748Z,29.24
2019-06-27T09:42:43.780Z,29.00
2019-06-27T09:43:43.820Z,28.92
2019-06-27T09:44:43.860Z,28.96
2019-06-27T09:45:43.895Z,29.00
2019-06-27T09:46:43.933Z,29.03
2019-06-27T09:47:43.973Z,29.05
2019-06-27T09:48:44.009Z,29.34
2019-06-27T09:49:44.060Z,29.30
2019-06-27T09:50:44.082Z,29.47
2019-06-27T09:51:44.122Z,29.44
2019-06-27T09:52:44.179Z,29.47
2019-06-27T09:53:44.196Z,29.49
2019-06-27T09:54:44.240Z,29.46
2019-06-27T09:55:47.266Z,29.46
2019-06-27T09:56:44.387Z,29.55
2019-06-27T09:57:44.380Z,29.58
2019-06-27T09:58:44.442Z,29.47
2019-06-27T09:59:44.441Z,29.44
2019-06-27T10:00:44.464Z,29.50
2019-06-27T10:01:44.498Z,29.50
2019-06-27T10:02:44.535Z,29.65
2019-06-27T10:03:44.574Z,29.64
2019-06-27T10:04:44.626Z,29.76
2019-06-27T10:05:44.647Z,29.69
2019-06-27T10:06:44.688Z,29.73
2019-06-27T10:07:44.727Z,29.80
2019-06-27T10:08:44.761Z,29.86
2019-06-27T10:09:44.800Z,29.83
2019-06-27T10:10:44.846Z,29.89
2019-06-27T10:11:44.875Z,29.90
2019-06-27T10:12:44.929Z,29.90
2019-06-27T10:13:44.951Z,29.98
2019-06-27T10:14:44.989Z,30.11
2019-06-27T10:15:45.025Z,30.29
2019-06-27T10:16:45.067Z,30.44
2019-06-27T10:17:45.111Z,30.55
2019-06-27T10:18:45.143Z,30.69
2019-06-27T10:19:45.179Z,30.77
2019-06-27T10:20:45.217Z,30.83
2019-06-27T10:21:45.255Z,30.85
2019-06-27T10:22:45.291Z,30.88
2019-06-27T10:23:45.332Z,30.85
2019-06-27T10:24:45.372Z,30.93
2019-06-27T10:25:45.407Z,30.74
2019-06-27T10:26:45.448Z,30.58
2019-06-27T10:27:45.488Z,30.61
2019-06-27T10:28:45.525Z,30.78
2019-06-27T10:29:45.561Z,30.93
2019-06-27T10:30:48.971Z,31.04
2019-06-27T10:31:45.639Z,30.81
2019-06-27T10:32:58.588Z,30.81
2019-06-27T10:33:45.716Z,30.89
2019-06-27T10:34:45.763Z,30.95
2019-06-27T10:35:45.806Z,30.88
2019-06-27T10:36:45.831Z,30.91
2019-06-27T10:37:45.868Z,30.77
2019-06-27T10:38:45.908Z,30.81
2019-06-27T10:39:45.945Z,30.89
2019-06-27T10:40:46.005Z,31.07
2019-06-27T10:41:46.022Z,30.93
2019-06-27T10:42:46.059Z,31.00
2019-06-27T10:43:46.099Z,31.08
2019-06-27T10:44:46.139Z,31.30
2019-06-27T10:45:46.176Z,31.25
2019-06-27T10:46:46.213Z,31.35
2019-06-27T10:47:46.324Z,31.32
2019-06-27T10:48:46.313Z,31.37
2019-06-27T10:49:46.380Z,31.51
2019-06-27T10:50:46.673Z,31.50
2019-06-27T10:51:46.408Z,31.51
2019-06-27T10:52:46.445Z,31.72
2019-06-27T10:53:46.482Z,31.69
2019-06-27T10:54:46.523Z,31.70
2019-06-27T10:55:46.558Z,31.89
2019-06-27T10:56:46.596Z,31.95
2019-06-27T10:57:46.637Z,31.98
2019-06-27T10:58:46.673Z,31.97
2019-06-27T10:59:46.715Z,32.11
2019-06-27T11:00:46.757Z,32.01
2019-06-27T11:01:46.850Z,32.15
2019-06-27T11:02:46.828Z,32.34
2019-06-27T11:03:46.863Z,32.38
2019-06-27T11:04:47.006Z,32.54
2019-06-27T11:05:46.945Z,32.67
2019-06-27T11:06:46.986Z,32.72
2019-06-27T11:07:47.020Z,32.88
2019-06-27T11:08:47.057Z,32.97
2019-06-27T11:09:50.101Z,32.90
2019-06-27T11:10:47.149Z,33.00
2019-06-27T11:11:47.175Z,33.16
2019-06-27T11:12:47.217Z,33.15
2019-06-27T11:13:58.249Z,33.19
2019-06-27T11:14:58.696Z,33.28
2019-06-27T11:15:49.315Z,33.39
2019-06-27T11:16:47.370Z,33.17
2019-06-27T11:17:47.407Z,33.33
2019-06-27T11:18:47.451Z,33.38
2019-06-27T11:19:52.443Z,33.67
2019-06-27T11:20:47.531Z,33.51
2019-06-27T11:21:47.562Z,33.72
2019-06-27T11:22:47.601Z,33.75
2019-06-27T11:23:47.641Z,33.70
2019-06-27T11:24:47.695Z,33.84
2019-06-27T11:25:47.718Z,33.69
2019-06-27T11:26:47.768Z,33.81
2019-06-27T11:27:47.798Z,33.76
2019-06-27T11:28:47.837Z,33.73
2019-06-27T11:29:47.873Z,33.55
2019-06-27T11:30:47.917Z,33.67
2019-06-27T11:31:47.954Z,33.63
2019-06-27T11:32:47.993Z,33.57
2019-06-27T11:33:48.031Z,33.50
2019-06-27T11:34:48.070Z,33.45
2019-06-27T11:35:48.108Z,33.40
2019-06-27T11:36:48.148Z,33.22
2019-06-27T11:37:48.255Z,33.28
2019-06-27T11:38:48.255Z,33.20
2019-06-27T11:39:48.327Z,33.16
2019-06-27T11:40:48.317Z,33.28
2019-06-27T11:41:48.346Z,33.44
2019-06-27T11:42:48.383Z,33.44
2019-06-27T11:43:48.416Z,33.67
2019-06-27T11:44:48.463Z,33.84
2019-06-27T11:45:48.492Z,33.79
2019-06-27T11:46:48.535Z,33.97
2019-06-27T11:47:48.571Z,33.98
2019-06-27T11:48:48.611Z,34.21
2019-06-27T11:49:48.649Z,34.46
2019-06-27T11:50:48.751Z,34.51
2019-06-27T11:51:48.727Z,34.53
2019-06-27T11:52:48.766Z,34.46
2019-06-27T11:53:48.805Z,34.50
2019-06-27T11:54:48.846Z,34.43
2019-06-27T11:55:48.886Z,34.60
2019-06-27T11:56:48.946Z,34.63
2019-06-27T11:57:48.965Z,34.50
2019-06-27T11:58:49.004Z,34.51
2019-06-27T11:59:49.040Z,34.31
2019-06-27T12:00:49.086Z,34.44
2019-06-27T12:01:49.117Z,34.41
2019-06-27T12:02:49.156Z,34.56
2019-06-27T12:03:50.038Z,34.59
2019-06-27T12:04:49.235Z,34.76
2019-06-27T12:05:49.274Z,34.81
2019-06-27T12:06:49.312Z,34.93
2019-06-27T12:07:49.357Z,34.82
2019-06-27T12:08:49.396Z,35.05
2019-06-27T12:09:49.428Z,34.96
2019-06-27T12:10:49.478Z,35.16
2019-06-27T12:11:49.510Z,35.16
2019-06-27T12:12:49.549Z,35.20
2019-06-27T12:13:49.583Z,34.98
2019-06-27T12:14:49.627Z,34.89
2019-06-27T12:15:51.666Z,34.76
2019-06-27T12:16:49.704Z,34.81
2019-06-27T12:17:49.766Z,34.76
2019-06-27T12:18:49.782Z,34.79
2019-06-27T12:19:49.817Z,34.83
2019-06-27T12:20:49.861Z,34.81
2019-06-27T12:21:49.897Z,35.10
2019-06-27T12:22:49.937Z,35.25
2019-06-27T12:23:49.989Z,35.30
2019-06-27T12:24:50.016Z,35.32
2019-06-27T12:25:50.054Z,35.45
2019-06-27T12:26:50.091Z,35.60
2019-06-27T12:27:50.219Z,35.41
2019-06-27T12:28:50.195Z,35.38
2019-06-27T12:29:50.262Z,35.37
2019-06-27T12:30:50.274Z,35.37
2019-06-27T12:31:51.767Z,35.31
2019-06-27T12:32:52.442Z,35.30
2019-06-27T12:34:05.596Z,35.38
2019-06-27T12:34:50.402Z,35.37
2019-06-27T12:35:50.442Z,35.42
2019-06-27T12:36:50.482Z,35.57
2019-06-27T12:37:50.520Z,35.52
2019-06-27T12:38:50.573Z,35.68
2019-06-27T12:39:50.597Z,35.68
2019-06-27T12:40:50.641Z,35.42
2019-06-27T12:41:50.676Z,35.60
2019-06-27T12:42:50.716Z,35.75
2019-06-27T12:43:50.755Z,35.81
2019-06-27T12:44:50.812Z,35.69
2019-06-27T12:45:50.829Z,35.63
2019-06-27T12:46:50.872Z,35.68
2019-06-27T12:47:50.910Z,35.79
2019-06-27T12:48:50.950Z,35.93
2019-06-27T12:50:02.160Z,35.87
2019-06-27T12:50:51.028Z,36.00
2019-06-27T12:51:51.066Z,35.97
2019-06-27T12:52:51.106Z,35.94